createdAt,value
2022-09-09T00:00:26.546Z,23.26
2022-09-09T00:05:30.494Z,23.13
2022-09-09T00:10:31.717Z,23.57
2022-09-09T00:15:34.894Z,23.51
2022-09-09T00:20:39.508Z,23.48
2022-09-09T00:25:52.658Z,23.06
2022-09-09T00:30:50.242Z,23.44
2022-09-09T00:35:50.030Z,23.43
2022-09-09T00:40:52.734Z,23.16
2022-09-09T00:46:24.403Z,23.22
2022-09-09T00:51:31.068Z,23.21
2022-09-09T00:56:36.371Z,23.05
2022-09-09T01:01:36.344Z,23.12
2022-09-09T01:06:37.241Z,23.02
2022-09-09T01:11:46.936Z,23.41
2022-09-09T01:16:47.540Z,23.23
2022-09-09T01:21:57.102Z,23.30
2022-09-09T01:27:01.109Z,23.17
2022-09-09T01:32:01.720Z,23.22
2022-09-09T01:37:05.386Z,23.02
2022-09-09T01:42:05.222Z,23.16
2022-09-09T01:47:09.809Z,22.95
2022-09-09T01:52:22.170Z,22.87
2022-09-09T01:57:24.654Z,23.22
2022-09-09T02:02:31.402Z,23.03
2022-09-09T02:07:42.783Z,22.87
2022-09-09T02:13:04.151Z,23.12
2022-09-09T02:18:08.921Z,22.92
2022-09-09T02:23:09.073Z,22.96
2022-09-09T02:28:10.759Z,22.58
2022-09-09T02:33:12.977Z,22.21
2022-09-09T02:38:17.420Z,22.53
2022-09-09T02:43:32.849Z,22.74
2022-09-09T02:48:41.627Z,22.89
2022-09-09T02:53:45.511Z,22.65
2022-09-09T02:58:48.831Z,22.73
2022-09-09T03:03:46.974Z,22.84
2022-09-09T03:08:49.551Z,22.28
2022-09-09T03:13:52.775Z,22.83
2022-09-09T03:18:51.631Z,22.77
2022-09-09T03:23:51.199Z,22.15
2022-09-09T03:28:55.590Z,22.38
2022-09-09T03:34:05.760Z,22.08
2022-09-09T03:39:09.232Z,22.73
2022-09-09T03:44:07.325Z,22.48
2022-09-09T03:49:11.489Z,21.96
2022-09-09T03:54:10.684Z,21.99
2022-09-09T03:59:11.207Z,22.69
2022-09-09T04:04:12.723Z,22.58
2022-09-09T04:09:13.195Z,22.51
2022-09-09T04:14:16.676Z,22.25
2022-09-09T04:19:14.773Z,22.52
2022-09-09T04:24:16.791Z,22.38
2022-09-09T04:29:30.217Z,22.96
2022-09-09T04:34:49.763Z,22.49
2022-09-09T04:39:48.591Z,22.72
2022-09-09T04:45:03.553Z,23.28
2022-09-09T04:50:02.296Z,23.41
2022-09-09T04:55:12.281Z,23.48
2022-09-09T05:00:15.449Z,23.72
2022-09-09T05:05:15.574Z,23.56
2022-09-09T05:10:18.530Z,23.80
2022-09-09T05:15:23.847Z,23.98
2022-09-09T05:20:22.136Z,24.00
2022-09-09T05:25:21.181Z,24.71
2022-09-09T05:30:22.691Z,25.58
2022-09-09T05:35:24.434Z,27.83
2022-09-09T05:40:25.662Z,30.18
2022-09-09T05:45:29.475Z,32.19
2022-09-09T05:50:48.847Z,33.95
2022-09-09T05:56:10.059Z,35.34
2022-09-09T06:01:10.525Z,36.77
2022-09-09T06:06:20.996Z,38.05
2022-09-09T15:46:08.986Z,29.96
2022-09-09T15:51:31.154Z,30.04
2022-09-09T15:56:38.530Z,30.04
2022-09-09T16:02:08.672Z,29.79
2022-09-09T16:07:42.911Z,29.40
2022-09-09T16:13:17.492Z,29.59
2022-09-09T16:19:35.626Z,29.27
2022-09-09T16:24:54.189Z,28.95
2022-09-09T16:29:54.296Z,28.74
2022-09-09T16:35:26.508Z,28.22
2022-09-09T16:41:04.243Z,28.28
2022-09-09T16:46:07.227Z,27.84
2022-09-09T16:52:26.934Z,28.13
2022-09-09T16:57:42.524Z,28.36
2022-09-09T17:03:27.708Z,28.04
2022-09-09T17:08:57.967Z,28.37
2022-09-09T17:14:32.599Z,28.79
2022-09-09T17:20:18.206Z,28.75
2022-09-09T17:26:14.654Z,28.94
2022-09-09T17:31:21.433Z,28.56
2022-09-09T17:37:14.126Z,28.34
2022-09-09T17:42:43.389Z,28.48
2022-09-09T17:47:48.122Z,27.99
2022-09-09T17:53:29.515Z,28.07
2022-09-09T17:58:41.727Z,28.17
2022-09-09T18:03:45.381Z,28.79
2022-09-09T18:08:51.905Z,28.94
2022-09-09T18:13:50.322Z,29.19
2022-09-09T18:19:01.519Z,29.16
2022-09-09T18:24:10.296Z,29.29
2022-09-09T18:29:18.082Z,29.01
2022-09-09T18:34:39.630Z,28.86
2022-09-09T18:39:47.205Z,29.45
2022-09-09T18:45:04.500Z,28.96
2022-09-09T18:50:33.802Z,29.28
2022-09-09T18:56:06.732Z,29.18
2022-09-09T19:01:12.687Z,28.58
2022-09-09T19:06:30.447Z,28.53
2022-09-09T19:12:03.221Z,28.12
2022-09-09T19:17:21.175Z,27.65
2022-09-09T19:22:35.855Z,27.76
2022-09-09T19:28:02.648Z,27.77
2022-09-09T19:33:29.313Z,27.41
2022-09-09T19:43:52.423Z,27.52
2022-09-09T19:48:50.161Z,27.65
2022-09-09T19:54:13.215Z,27.31
2022-09-09T19:59:20.739Z,27.54
2022-09-09T20:04:38.887Z,27.95
2022-09-09T20:09:47.162Z,28.06
2022-09-09T20:14:55.344Z,28.17
2022-09-09T20:20:06.650Z,27.90
2022-09-09T20:30:36.013Z,28.36
2022-09-09T20:35:44.469Z,28.22
2022-09-09T20:41:03.934Z,28.35
2022-09-09T20:46:13.099Z,28.16
2022-09-09T20:51:31.058Z,28.19
2022-09-09T20:56:35.594Z,28.37
2022-09-09T21:01:56.316Z,28.05
2022-09-09T21:06:56.851Z,28.13
2022-09-09T21:11:59.779Z,27.80
2022-09-09T21:17:09.414Z,27.65
2022-09-09T21:22:14.263Z,27.70
2022-09-09T21:27:15.555Z,27.70
2022-09-09T21:32:34.981Z,28.05
2022-09-09T21:37:36.717Z,28.09
2022-09-09T21:42:39.956Z,28.14
2022-09-09T21:47:47.591Z,28.14
2022-09-09T21:52:49.633Z,27.63
2022-09-09T21:58:01.358Z,27.83
2022-09-09T22:03:07.211Z,27.74
2022-09-09T22:08:13.191Z,27.42
2022-09-09T22:13:17.103Z,27.27
2022-09-09T22:18:29.408Z,27.25
2022-09-09T22:23:29.038Z,27.47
2022-09-09T22:28:31.472Z,27.22
2022-09-09T22:33:35.965Z,27.26
2022-09-09T22:38:35.818Z,27.02
2022-09-09T22:43:36.596Z,27.08
2022-09-09T22:48:40.247Z,26.88
2022-09-09T22:53:38.738Z,26.44
2022-09-09T22:58:39.048Z,26.53
2022-09-09T23:03:40.647Z,26.73
2022-09-09T23:08:39.350Z,26.21
2022-09-09T23:13:43.701Z,26.50
2022-09-09T23:18:46.484Z,26.16
2022-09-09T23:23:56.943Z,26.08
2022-09-09T23:28:57.850Z,26.29
2022-09-09T23:34:15.984Z,26.46
2022-09-09T23:39:13.461Z,26.16
2022-09-09T23:44:27.849Z,26.23
2022-09-09T23:49:27.084Z,25.83
2022-09-09T23:54:26.605Z,26.32
2022-09-09T23:59:28.554Z,26.21
